createdAt,value
2023-01-13T00:01:14.727Z,8.67
2023-01-13T00:06:28.149Z,8.70
2023-01-13T00:11:38.279Z,8.69
2023-01-13T00:16:50.212Z,8.69
2023-01-13T00:22:05.342Z,8.67
2023-01-13T00:27:12.993Z,8.66
2023-01-13T00:32:19.995Z,8.67
2023-01-13T00:37:27.422Z,8.65
2023-01-13T00:42:52.234Z,8.61
2023-01-13T00:47:59.342Z,8.53
2023-01-13T00:53:06.436Z,8.43
2023-01-13T00:58:13.980Z,8.38
2023-01-13T01:03:23.900Z,8.37
2023-01-13T01:08:30.897Z,8.35
2023-01-13T01:13:39.398Z,8.34
2023-01-13T01:18:49.340Z,8.36
2023-01-13T01:23:57.530Z,8.37
2023-01-13T01:29:04.844Z,8.42
2023-01-13T01:34:12.063Z,8.47
2023-01-13T01:39:18.985Z,8.49
2023-01-13T01:44:56.310Z,8.56
2023-01-13T01:50:05.302Z,8.57
2023-01-13T01:55:15.837Z,8.53
2023-01-13T02:00:23.777Z,8.54
2023-01-13T02:05:30.979Z,8.57
2023-01-13T02:10:39.459Z,8.61
2023-01-13T02:15:56.240Z,8.67
2023-01-13T02:21:40.683Z,8.70
2023-01-13T02:27:27.296Z,8.69
2023-01-13T02:32:41.008Z,8.67
2023-01-13T02:37:49.814Z,8.66
2023-01-13T02:43:25.515Z,8.68
2023-01-13T02:48:42.739Z,8.67
2023-01-13T02:54:04.590Z,8.67
2023-01-13T02:59:24.095Z,8.71
2023-01-13T03:04:54.434Z,8.77
2023-01-13T03:10:08.526Z,8.84
2023-01-13T03:15:24.573Z,8.93
2023-01-13T03:20:36.276Z,8.96
2023-01-13T03:25:52.001Z,8.98
2023-01-13T03:31:04.548Z,9.00
2023-01-13T03:36:15.463Z,8.89
2023-01-13T03:41:28.689Z,8.76
2023-01-13T03:46:46.304Z,8.68
2023-01-13T03:51:57.465Z,8.63
2023-01-13T03:57:10.740Z,8.61
2023-01-13T04:02:18.622Z,8.62
2023-01-13T04:07:34.032Z,8.63
2023-01-13T04:13:05.182Z,8.65
2023-01-13T04:18:15.345Z,8.63
2023-01-13T04:23:23.797Z,8.59
2023-01-13T04:28:30.802Z,8.57
2023-01-13T04:33:37.755Z,8.57
2023-01-13T04:38:44.660Z,8.57
2023-01-13T04:43:51.696Z,8.56
2023-01-13T04:48:58.571Z,8.56
2023-01-13T04:54:06.026Z,8.60
2023-01-13T04:59:15.461Z,8.62
2023-01-13T05:04:22.409Z,8.64
2023-01-13T05:09:29.669Z,8.65
2023-01-13T05:14:54.291Z,8.71
2023-01-13T05:20:01.737Z,8.76
2023-01-13T05:25:25.407Z,8.82
2023-01-13T05:30:35.061Z,8.90
2023-01-13T05:35:43.503Z,8.95
2023-01-13T05:41:08.367Z,8.97
2023-01-13T05:46:17.880Z,8.99
2023-01-13T05:51:26.503Z,8.97
2023-01-13T05:56:34.341Z,8.95
2023-01-13T06:01:41.336Z,8.94
2023-01-13T06:06:48.998Z,8.95
2023-01-13T06:11:55.933Z,8.95
2023-01-13T06:17:03.088Z,8.91
2023-01-13T06:22:16.805Z,8.89
2023-01-13T06:27:24.415Z,8.87
2023-01-13T06:32:35.098Z,8.87
2023-01-13T06:37:43.928Z,8.89
2023-01-13T06:43:10.235Z,8.92
2023-01-13T06:48:17.690Z,8.98
2023-01-13T06:53:24.616Z,9.02
2023-01-13T06:58:31.489Z,9.04
2023-01-13T07:03:38.958Z,9.06
2023-01-13T07:08:45.877Z,9.10
2023-01-13T07:14:09.977Z,9.13
2023-01-13T07:19:23.261Z,9.18
2023-01-13T07:24:30.252Z,9.20
2023-01-13T07:29:38.008Z,9.23
2023-01-13T07:34:45.101Z,9.26
2023-01-13T07:39:52.280Z,9.27
2023-01-13T07:44:59.256Z,9.30
2023-01-13T07:50:06.941Z,9.30
2023-01-13T07:55:13.999Z,9.30
2023-01-13T08:00:22.609Z,9.28
2023-01-13T08:05:29.725Z,9.29
2023-01-13T08:10:37.604Z,9.29
2023-01-13T08:15:44.935Z,9.32
2023-01-13T08:20:53.403Z,9.35
2023-01-13T08:26:04.822Z,9.39
2023-01-13T08:31:14.550Z,9.45
2023-01-13T08:36:21.624Z,9.51
2023-01-13T08:41:51.502Z,9.56
2023-01-13T08:46:58.973Z,9.62
2023-01-13T08:52:05.961Z,9.64
2023-01-13T08:57:13.230Z,9.66
2023-01-13T09:02:22.976Z,9.69
2023-01-13T09:07:30.031Z,9.71
2023-01-13T09:12:54.890Z,9.73
2023-01-13T09:18:02.782Z,9.74
2023-01-13T09:23:10.898Z,9.73
2023-01-13T09:28:18.194Z,9.63
2023-01-13T09:33:42.935Z,9.32
2023-01-13T09:38:51.761Z,9.06
2023-01-13T09:44:02.712Z,9.07
2023-01-13T09:49:16.024Z,9.16
2023-01-13T09:54:32.480Z,9.26
2023-01-13T09:59:39.891Z,9.37
2023-01-13T10:05:03.005Z,9.46
2023-01-13T10:10:18.880Z,9.54
2023-01-13T10:15:28.549Z,9.54
2023-01-13T10:20:43.172Z,9.59
2023-01-13T10:25:59.926Z,9.65
2023-01-13T10:31:13.422Z,9.78
2023-01-13T10:36:21.641Z,9.96
2023-01-13T10:41:30.213Z,10.13
2023-01-13T10:46:52.841Z,10.27
2023-01-13T10:51:59.911Z,10.34
2023-01-13T10:57:22.811Z,10.43
2023-01-13T11:02:32.360Z,10.55
2023-01-13T11:07:42.201Z,10.67
2023-01-13T11:12:58.810Z,10.77
2023-01-13T11:18:14.771Z,10.85
2023-01-13T11:23:28.815Z,10.87
2023-01-13T11:28:43.252Z,10.82
2023-01-13T11:33:55.661Z,10.79
2023-01-13T11:39:12.255Z,10.87
2023-01-13T11:44:24.685Z,10.99
2023-01-13T11:49:34.336Z,11.07
2023-01-13T11:55:22.428Z,11.06
2023-01-13T12:00:52.001Z,11.06
2023-01-13T12:06:27.800Z,11.11
2023-01-13T12:12:01.249Z,11.14
2023-01-13T12:17:15.093Z,11.18
2023-01-13T12:22:27.577Z,11.17
2023-01-13T12:27:47.143Z,11.13
2023-01-13T12:32:57.281Z,11.10
2023-01-13T12:38:09.843Z,11.09
2023-01-13T12:43:39.038Z,11.11
2023-01-13T12:49:04.773Z,11.17
2023-01-13T12:54:56.296Z,11.26
2023-01-13T13:00:18.524Z,11.41
2023-01-13T13:05:49.271Z,11.46
2023-01-13T13:11:31.145Z,11.55
2023-01-13T13:16:49.864Z,11.55
2023-01-13T13:22:30.943Z,11.48
2023-01-13T13:27:46.824Z,11.37
2023-01-13T13:33:04.759Z,11.30
2023-01-13T13:38:44.505Z,11.21
2023-01-13T13:44:10.056Z,11.13
2023-01-13T13:49:19.422Z,11.07
2023-01-13T13:54:26.811Z,11.02
2023-01-13T13:59:34.559Z,10.96
2023-01-13T14:04:41.731Z,10.89
2023-01-13T14:09:50.724Z,10.84
2023-01-13T14:14:59.919Z,10.80
2023-01-13T14:20:15.615Z,10.74
2023-01-13T14:25:36.710Z,10.61
2023-01-13T14:30:45.095Z,10.13
2023-01-13T14:36:24.742Z,9.62
2023-01-13T14:41:36.789Z,9.24
2023-01-13T14:46:46.498Z,9.00
2023-01-13T14:51:54.294Z,8.79
2023-01-13T14:57:16.054Z,8.62
2023-01-13T15:02:44.009Z,8.54
2023-01-13T15:07:54.641Z,8.50
2023-01-13T15:13:04.124Z,8.45
2023-01-13T15:18:17.118Z,8.38
2023-01-13T15:23:24.745Z,8.27
2023-01-13T15:28:34.313Z,8.14
2023-01-13T15:33:41.911Z,8.10
2023-01-13T15:38:48.930Z,8.10
2023-01-13T15:44:13.715Z,8.10
2023-01-13T15:49:26.776Z,8.14
2023-01-13T15:54:33.968Z,8.21
2023-01-13T15:59:41.181Z,8.22
2023-01-13T16:04:48.457Z,8.23
2023-01-13T16:09:55.850Z,8.23
2023-01-13T16:15:02.697Z,8.20
2023-01-13T16:20:16.623Z,8.15
2023-01-13T16:25:25.422Z,8.08
2023-01-13T16:30:34.616Z,8.01
2023-01-13T16:36:08.757Z,7.96
2023-01-13T16:41:09.360Z,7.91
2023-01-13T16:46:23.372Z,8.03
2023-01-13T16:51:31.424Z,8.18
2023-01-13T16:56:40.837Z,8.11
2023-01-13T17:01:47.850Z,8.03
2023-01-13T17:07:00.450Z,7.99
2023-01-13T17:12:07.789Z,7.94
2023-01-13T17:17:23.940Z,7.90
2023-01-13T17:22:31.620Z,7.88
2023-01-13T17:27:38.565Z,7.83
2023-01-13T17:32:46.619Z,7.77
2023-01-13T17:37:56.972Z,7.79
2023-01-13T17:43:04.116Z,7.74
2023-01-13T17:48:12.672Z,7.66
2023-01-13T17:53:19.747Z,7.58
2023-01-13T17:58:27.602Z,7.54
2023-01-13T18:03:34.548Z,7.44
2023-01-13T18:08:41.615Z,7.34
2023-01-13T18:13:49.778Z,7.22
2023-01-13T18:19:18.331Z,7.13
2023-01-13T18:24:42.825Z,7.00
2023-01-13T18:29:51.565Z,6.83
2023-01-13T18:35:05.801Z,6.73
2023-01-13T18:40:15.247Z,6.67
2023-01-13T18:45:24.496Z,6.70
2023-01-13T18:50:32.623Z,6.76
2023-01-13T18:55:41.273Z,6.83
2023-01-13T19:00:48.295Z,6.90
2023-01-13T19:06:02.161Z,6.92
2023-01-13T19:11:09.595Z,6.96
2023-01-13T19:16:17.721Z,6.94
2023-01-13T19:21:25.405Z,6.91
2023-01-13T19:26:32.451Z,6.93
2023-01-13T19:31:39.549Z,6.96
2023-01-13T19:36:46.673Z,6.96
2023-01-13T19:42:11.515Z,7.00
2023-01-13T19:47:18.967Z,7.09
2023-01-13T19:52:26.224Z,7.05
2023-01-13T19:57:33.300Z,6.99
2023-01-13T20:02:47.887Z,6.85
2023-01-13T20:07:55.189Z,6.72
2023-01-13T20:13:02.159Z,6.70
2023-01-13T20:18:10.544Z,6.72
2023-01-13T20:23:17.627Z,6.71
2023-01-13T20:28:24.617Z,6.69
2023-01-13T20:33:32.005Z,6.72
2023-01-13T20:38:40.639Z,6.74
2023-01-13T20:43:52.788Z,6.64
2023-01-13T20:49:00.648Z,6.45
2023-01-13T20:54:09.459Z,6.31
2023-01-13T20:59:17.330Z,6.21
2023-01-13T21:04:24.602Z,6.13
2023-01-13T21:09:32.396Z,6.18
2023-01-13T21:14:56.940Z,6.35
2023-01-13T21:20:04.685Z,6.52
2023-01-13T21:25:13.506Z,6.69
2023-01-13T21:30:21.018Z,6.76
2023-01-13T21:35:28.267Z,6.78
2023-01-13T21:40:35.100Z,6.75
2023-01-13T21:46:00.495Z,6.69
2023-01-13T21:51:08.197Z,6.56
2023-01-13T21:56:16.469Z,6.47
2023-01-13T22:01:23.759Z,6.36
2023-01-13T22:06:31.275Z,6.24
2023-01-13T22:11:38.491Z,6.12
2023-01-13T22:16:49.794Z,6.07
2023-01-13T22:21:57.199Z,6.02
2023-01-13T22:27:04.386Z,5.92
2023-01-13T22:32:11.465Z,5.87
2023-01-13T22:37:18.577Z,5.88
2023-01-13T22:42:25.541Z,6.05
2023-01-13T22:47:32.457Z,6.20
2023-01-13T22:52:39.917Z,6.30
2023-01-13T22:57:48.463Z,6.39
2023-01-13T23:02:55.613Z,6.53
2023-01-13T23:08:02.744Z,6.66
2023-01-13T23:13:09.978Z,6.75
2023-01-13T23:18:17.009Z,6.76
2023-01-13T23:23:25.446Z,6.73
2023-01-13T23:28:33.514Z,6.72
2023-01-13T23:33:41.407Z,6.71
2023-01-13T23:38:48.727Z,6.65
2023-01-13T23:43:56.889Z,6.60
2023-01-13T23:49:04.887Z,6.55
2023-01-13T23:54:12.093Z,6.47
2023-01-13T23:59:19.045Z,6.38
